Meteo Giornale » Osservazioni meteo Stati Uniti (USA) » Dillon
ore: 12:53 - Osservazioni Meteo Dillon
Lat. 45° 15' N Lon. 112° 33' W Alt. 1597 metri s.l.m.
21 °C
Sereno
Temp. 24 Ore
3 °C
22 °C
Nord
7.4 Km/h
Dew point -3 °C
Umidità 19 %
Visibilità 10 Km
Il sole sorge alle ore 06:51
Il sole tramonta alle ore 20:09
| Data e Ora | Cielo e Fenomeni | T °C | DP °C | Um. % | Pres. hPa | Vis. km | Vento km/h | |
|---|---|---|---|---|---|---|---|---|
| Oggi h: 12:53 | Sereno | 21 | -3 | 19 | 1019 | 10 | N 7.4 | |
| Oggi h: 11:53 | Sereno | 19 | -3 | 22 | 1020 | 10 | N 9.3 | |
| Oggi h: 10:53 | Sereno | 16 | -3 | 26 | 1020 | 10 | N 0 | |
| Oggi h: 09:53 | Sereno | 13 | -3 | 32 | 1020 | 10 | SO 11.1 | |
| Oggi h: 08:53 | Sereno | 11 | -2 | 40 | 1021 | 10 | S/SO 14.8 | |
| Oggi h: 07:53 | Sereno | 7 | -2 | 52 | 1020 | 10 | S 18.5 | |
| Oggi h: 06:53 | Sereno | 3 | -2 | 69 | 1020 | 10 | S/SO 16.7 | |
| Oggi h: 05:53 | Sereno | 4 | -2 | 64 | 1020 | 10 | S/SO 14.8 | |
| Oggi h: 04:53 | Sereno | 3 | -1 | 74 | 1019 | 10 | S/SO 16.7 | |
| Oggi h: 03:53 | Sereno | 4 | -1 | 69 | 1019 | 10 | N 0 | |
| Oggi h: 02:53 | Sereno | 9 | -3 | 42 | 1019 | 10 | S 13 | |
| Oggi h: 01:53 | Sereno | 11 | -5 | 32 | 1019 | 10 | S/SE 7.4 | |
| Oggi h: 00:53 | Sereno | 9 | -4 | 39 | 1019 | 10 | S 7.4 | |
| Ieri h: 23:53 | Sereno | 9 | -3 | 42 | 1018 | 10 | E/SE 9.3 | |
| Ieri h: 22:53 | Sereno | 12 | -4 | 32 | 1018 | 10 | S/SE 14.8 | |
| Ieri h: 21:53 | Sereno | 10 | -2 | 42 | 1017 | 10 | E/SE 14.8 | |
| Ieri h: 20:53 | Sereno | 13 | -3 | 32 | 1017 | 10 | E/SE 14.8 | |
| Ieri h: 19:53 | Sereno | 17 | -2 | 27 | 1016 | 10 | N 0 | |
| Ieri h: 18:53 | Sereno | 19 | 0 | 27 | 1016 | 10 | O/NO 14.8 | |
| Ieri h: 17:53 | Sereno | 21 | -1 | 22 | 1016 | 10 | O/NO 20.3 | |
| Ieri h: 16:53 | Sereno | 21 | -4 | 18 | 1016 | 10 | O 25.9 | |
| Ieri h: 15:53 | Sereno | 22 | -6 | 14 | 1016 | 10 | O 18.5 | |
| Ieri h: 14:53 | Sereno | 21 | -6 | 15 | 1016 | 10 | S/SO 16.7 | |
| Ieri h: 13:53 | Sereno | 19 | -3 | 22 | 1017 | 10 | O 25.9 | |



